createdAt,value
2023-02-12T00:00:40.147Z,84.81
2023-02-12T00:01:40.102Z,84.95
2023-02-12T00:02:40.094Z,84.44
2023-02-12T00:03:40.083Z,84.53
2023-02-12T00:04:39.952Z,84.72
2023-02-12T00:05:39.906Z,84.44
2023-02-12T00:06:39.853Z,84.72
2023-02-12T00:07:39.802Z,84.91
2023-02-12T00:08:39.765Z,84.72
2023-02-12T00:09:39.728Z,84.63
2023-02-12T00:10:39.656Z,85.28
2023-02-12T00:11:39.612Z,85.28
2023-02-12T00:12:39.558Z,84.81
2023-02-12T00:13:39.503Z,85.19
2023-02-12T00:14:39.461Z,85.10
2023-02-12T00:15:39.443Z,85.28
2023-02-12T00:16:39.357Z,85.47
2023-02-12T00:17:39.307Z,85.57
2023-02-12T00:18:39.258Z,85.57
2023-02-12T00:19:39.205Z,85.66
2023-02-12T00:20:39.160Z,86.14
2023-02-12T00:21:39.159Z,86.42
2023-02-12T00:22:39.070Z,85.95
2023-02-12T00:23:39.026Z,85.47
2023-02-12T00:24:38.963Z,85.28
2023-02-12T00:25:38.911Z,85.57
2023-02-12T00:26:38.860Z,85.47
2023-02-12T00:27:38.846Z,85.47
2023-02-12T00:28:38.841Z,85.66
2023-02-12T00:29:38.716Z,85.66
2023-02-12T00:30:38.758Z,85.66
2023-02-12T00:31:38.633Z,85.66
2023-02-12T00:32:38.573Z,85.66
2023-02-12T00:33:38.529Z,85.85
2023-02-12T00:34:38.484Z,86.23
2023-02-12T00:35:38.423Z,85.95
2023-02-12T00:36:38.362Z,85.76
2023-02-12T00:37:38.323Z,86.04
2023-02-12T00:38:38.291Z,85.95
2023-02-12T00:39:38.245Z,86.14
2023-02-12T00:40:38.170Z,86.42
2023-02-12T00:41:38.184Z,86.71
2023-02-12T00:42:38.067Z,86.23
2023-02-12T00:43:38.026Z,86.04
2023-02-12T00:44:37.968Z,85.85
2023-02-12T00:45:37.918Z,85.95
2023-02-12T00:46:37.892Z,85.95
2023-02-12T00:47:37.855Z,86.04
2023-02-12T00:48:37.775Z,85.85
2023-02-12T00:49:37.721Z,86.04
2023-02-12T00:50:37.667Z,85.85
2023-02-12T00:51:37.664Z,86.80
2023-02-12T00:52:37.577Z,86.80
2023-02-12T00:53:37.524Z,86.80
2023-02-12T00:54:37.497Z,86.71
2023-02-12T00:55:37.423Z,86.90
2023-02-12T00:56:37.388Z,86.04
2023-02-12T00:57:37.320Z,85.95
2023-02-12T00:58:37.283Z,85.95
2023-02-12T00:59:37.232Z,85.95
2023-02-12T01:00:37.177Z,86.42
2023-02-12T01:01:37.152Z,86.04
2023-02-12T01:02:37.106Z,86.23
2023-02-12T01:03:37.024Z,86.33
2023-02-12T01:04:37.032Z,86.23
2023-02-12T01:05:36.926Z,86.23
2023-02-12T01:06:36.878Z,85.66
2023-02-12T01:07:36.827Z,85.95
2023-02-12T01:08:36.830Z,86.04
2023-02-12T01:09:36.732Z,86.14
2023-02-12T01:10:36.683Z,85.85
2023-02-12T01:11:36.630Z,86.14
2023-02-12T01:12:36.593Z,86.04
2023-02-12T01:13:36.550Z,86.04
2023-02-12T01:14:36.509Z,86.14
2023-02-12T01:15:36.455Z,85.85
2023-02-12T01:16:36.486Z,86.04
2023-02-12T01:17:36.331Z,85.95
2023-02-12T01:18:36.289Z,86.14
2023-02-12T01:19:36.236Z,86.61
2023-02-12T01:20:36.188Z,86.80
2023-02-12T01:21:36.161Z,86.61
2023-02-12T01:22:36.086Z,87.37
2023-02-12T01:23:36.064Z,87.08
2023-02-12T01:24:35.986Z,86.99
2023-02-12T01:25:35.936Z,87.37
2023-02-12T01:26:35.891Z,87.08
2023-02-12T01:27:35.850Z,86.71
2023-02-12T01:28:35.878Z,86.90
2023-02-12T01:29:35.737Z,86.80
2023-02-12T01:30:35.689Z,86.61
2023-02-12T01:31:35.737Z,86.33
2023-02-12T01:32:35.603Z,86.33
2023-02-12T01:33:35.555Z,86.80
2023-02-12T01:34:35.509Z,86.99
2023-02-12T01:35:35.447Z,86.04
2023-02-12T01:36:35.399Z,86.14
2023-02-12T01:37:35.340Z,86.14
2023-02-12T01:38:35.290Z,86.04
2023-02-12T01:39:35.241Z,86.14
2023-02-12T01:40:35.206Z,86.14
2023-02-12T01:41:35.139Z,86.80
2023-02-12T01:42:35.096Z,86.71
2023-02-12T01:43:35.044Z,87.08
2023-02-12T01:44:34.993Z,86.33
2023-02-12T01:45:34.948Z,85.85
2023-02-12T01:46:34.942Z,85.95
2023-02-12T01:47:34.845Z,86.04
2023-02-12T01:48:34.794Z,85.66
2023-02-12T01:49:34.745Z,85.66
2023-02-12T01:50:34.697Z,85.76
2023-02-12T01:51:34.657Z,85.76
2023-02-12T01:52:34.594Z,85.38
2023-02-12T01:53:34.542Z,85.57
2023-02-12T01:54:34.501Z,85.28
2023-02-12T01:55:34.451Z,85.38
2023-02-12T01:56:34.403Z,85.57
2023-02-12T01:57:34.344Z,85.57
2023-02-12T01:58:34.298Z,85.38
2023-02-12T01:59:34.251Z,85.28
2023-02-12T02:00:34.198Z,85.28
2023-02-12T02:01:34.190Z,85.28
2023-02-12T02:02:34.100Z,85.19
2023-02-12T02:03:34.084Z,84.72
2023-02-12T02:04:33.997Z,85.28
2023-02-12T02:05:33.956Z,84.72
2023-02-12T02:06:34.003Z,84.53
2023-02-12T02:07:33.849Z,84.91
2023-02-12T02:08:33.798Z,84.91
2023-02-12T02:09:33.749Z,85.00
2023-02-12T02:10:33.709Z,85.24
2023-02-12T02:11:33.649Z,85.10
2023-02-12T02:12:33.616Z,85.57
2023-02-12T02:13:33.559Z,85.34
2023-02-12T02:14:33.506Z,85.19
2023-02-12T02:15:33.450Z,85.24
2023-02-12T02:16:33.497Z,85.76
2023-02-12T02:17:33.357Z,85.95
2023-02-12T02:18:33.311Z,85.85
2023-02-12T02:19:33.247Z,86.99
2023-02-12T02:20:33.219Z,86.61
2023-02-12T02:21:33.148Z,86.33
2023-02-12T02:22:33.121Z,86.42
2023-02-12T02:23:33.050Z,86.61
2023-02-12T02:24:33.012Z,86.61
2023-02-12T02:25:32.949Z,86.71
2023-02-12T02:26:32.900Z,86.99
2023-02-12T02:27:32.859Z,86.42
2023-02-12T02:28:32.860Z,86.14
2023-02-12T02:29:32.772Z,86.14
2023-02-12T02:30:32.776Z,86.14
2023-02-12T02:31:32.738Z,86.33
2023-02-12T02:32:32.597Z,86.04
2023-02-12T02:33:32.553Z,86.14
2023-02-12T02:34:32.499Z,85.72
2023-02-12T02:35:32.463Z,86.00
2023-02-12T02:36:32.401Z,86.47
2023-02-12T02:37:32.346Z,86.23
2023-02-12T02:38:32.301Z,86.29
2023-02-12T02:39:32.253Z,86.57
2023-02-12T02:40:32.205Z,86.57
2023-02-12T02:41:32.165Z,86.29
2023-02-12T02:42:32.105Z,86.33
2023-02-12T02:43:32.049Z,86.52
2023-02-12T02:44:31.999Z,86.47
2023-02-12T02:45:31.948Z,86.29
2023-02-12T02:46:31.925Z,86.57
2023-02-12T02:47:31.893Z,86.71
2023-02-12T02:48:31.800Z,86.52
2023-02-12T02:49:31.752Z,86.80
2023-02-12T02:50:31.718Z,86.04
2023-02-12T02:51:31.662Z,86.29
2023-02-12T02:52:31.598Z,85.62
2023-02-12T02:53:31.576Z,85.43
2023-02-12T02:54:31.495Z,85.34
2023-02-12T02:55:31.458Z,84.68
2023-02-12T02:56:31.403Z,85.24
2023-02-12T02:57:31.354Z,85.05
2023-02-12T02:58:31.307Z,85.43
2023-02-12T02:59:31.269Z,85.81
2023-02-12T03:00:31.200Z,86.00
2023-02-12T03:01:31.165Z,86.00
2023-02-12T03:02:31.128Z,85.91
2023-02-12T03:03:31.059Z,86.00
2023-02-12T03:04:31.000Z,86.85
2023-02-12T03:05:30.950Z,86.76
2023-02-12T03:06:30.908Z,86.29
2023-02-12T03:07:30.848Z,86.29
2023-02-12T03:08:30.819Z,86.57
2023-02-12T03:09:30.750Z,86.94
2023-02-12T03:10:30.698Z,86.47
2023-02-12T03:11:30.655Z,86.00
2023-02-12T03:12:30.600Z,85.81
2023-02-12T03:13:30.546Z,86.00
2023-02-12T03:14:30.517Z,85.91
2023-02-12T03:15:30.459Z,86.85
2023-02-12T03:16:30.441Z,85.91
2023-02-12T03:17:30.373Z,86.66
2023-02-12T03:18:30.299Z,86.00
2023-02-12T03:19:30.253Z,85.91
2023-02-12T03:20:30.226Z,86.19
2023-02-12T03:21:30.160Z,85.81
2023-02-12T03:22:30.101Z,85.72
2023-02-12T03:23:30.054Z,85.53
2023-02-12T03:24:30.001Z,85.43
2023-02-12T03:25:29.953Z,85.15
2023-02-12T03:26:29.925Z,85.15
2023-02-12T03:27:29.851Z,85.34
2023-02-12T03:28:29.851Z,85.62
2023-02-12T03:29:29.754Z,85.62
2023-02-12T03:30:29.727Z,85.24
2023-02-12T03:31:29.668Z,85.62
2023-02-12T03:32:29.624Z,85.34
2023-02-12T03:33:29.553Z,85.62
2023-02-12T03:34:29.502Z,85.53
2023-02-12T03:35:29.451Z,85.34
2023-02-12T03:36:29.403Z,85.43
2023-02-12T03:37:29.347Z,85.34
2023-02-12T03:38:29.336Z,85.24
2023-02-12T03:39:29.251Z,84.96
2023-02-12T03:40:29.204Z,85.34
2023-02-12T03:41:29.179Z,85.62
2023-02-12T03:42:29.143Z,85.43
2023-02-12T03:43:29.098Z,85.72
2023-02-12T03:44:28.994Z,85.24
2023-02-12T03:45:29.014Z,85.62
2023-02-12T03:46:28.917Z,85.43
2023-02-12T03:47:28.851Z,85.34
2023-02-12T03:48:28.801Z,84.86
2023-02-12T03:49:28.755Z,84.68
2023-02-12T03:50:28.702Z,85.15
2023-02-12T03:51:28.651Z,84.86
2023-02-12T03:52:28.611Z,84.68
2023-02-12T03:53:28.556Z,84.68
2023-02-12T03:54:28.506Z,84.49
2023-02-12T03:55:28.460Z,85.15
2023-02-12T03:56:28.398Z,84.68
2023-02-12T03:57:28.373Z,84.68
2023-02-12T03:58:28.302Z,84.68
2023-02-12T03:59:28.245Z,84.68
2023-02-12T04:00:28.200Z,85.15
2023-02-12T04:01:28.273Z,84.77
2023-02-12T04:02:28.092Z,84.68
2023-02-12T04:03:28.080Z,84.68
2023-02-12T04:04:28.049Z,84.77
2023-02-12T04:05:27.956Z,84.77
2023-02-12T04:06:27.897Z,84.77
2023-02-12T04:07:27.849Z,84.58
2023-02-12T04:08:27.825Z,84.96
2023-02-12T04:09:27.744Z,86.10
2023-02-12T04:10:27.693Z,86.66
2023-02-12T04:11:27.645Z,86.57
2023-02-12T04:12:27.592Z,86.66
2023-02-12T04:13:27.545Z,85.91
2023-02-12T04:14:27.504Z,86.10
2023-02-12T04:15:27.444Z,85.91
2023-02-12T04:16:27.406Z,85.24
2023-02-12T04:17:27.339Z,85.43
2023-02-12T04:18:27.304Z,85.34
2023-02-12T04:19:27.244Z,85.24
2023-02-12T04:20:27.197Z,85.43
2023-02-12T04:21:27.142Z,85.62
2023-02-12T04:22:27.093Z,85.43
2023-02-12T04:23:27.043Z,86.00
2023-02-12T04:24:27.008Z,85.91
2023-02-12T04:25:26.940Z,85.91
2023-02-12T04:26:26.893Z,86.94
2023-02-12T04:27:26.841Z,86.76
2023-02-12T04:28:26.841Z,86.29
2023-02-12T04:29:26.742Z,86.76
2023-02-12T04:30:26.765Z,86.94
2023-02-12T04:31:26.808Z,86.00
2023-02-12T04:32:26.595Z,86.00
2023-02-12T04:33:26.540Z,86.19
2023-02-12T04:34:26.500Z,86.00
2023-02-12T04:35:26.443Z,85.72
2023-02-12T04:36:26.428Z,85.72
2023-02-12T04:37:26.350Z,85.24
2023-02-12T04:38:26.291Z,85.53
2023-02-12T04:39:26.247Z,85.24
2023-02-12T04:40:26.196Z,85.34
2023-02-12T04:41:26.146Z,85.05
2023-02-12T04:42:26.112Z,84.96
2023-02-12T04:43:26.055Z,84.77
2023-02-12T04:44:25.997Z,85.15
2023-02-12T04:45:25.955Z,84.86
2023-02-12T04:46:25.922Z,85.53
2023-02-12T04:47:25.849Z,85.05
2023-02-12T04:48:25.820Z,85.15
2023-02-12T04:49:25.761Z,84.58
2023-02-12T04:50:25.689Z,84.77
2023-02-12T04:51:25.656Z,84.77
2023-02-12T04:52:25.592Z,84.58
2023-02-12T04:53:25.546Z,84.86
2023-02-12T04:54:25.525Z,85.34
2023-02-12T04:55:25.463Z,85.62
2023-02-12T04:56:25.393Z,86.00
2023-02-12T04:57:25.341Z,86.19
2023-02-12T04:58:25.291Z,86.10
2023-02-12T04:59:25.242Z,86.00
2023-02-12T05:00:25.192Z,86.10
2023-02-12T05:01:25.211Z,86.10
2023-02-12T05:02:25.091Z,85.91
2023-02-12T05:03:25.042Z,86.00
2023-02-12T05:04:24.993Z,86.00
2023-02-12T05:05:25.021Z,86.10
2023-02-12T05:06:24.903Z,86.19
2023-02-12T05:07:24.864Z,86.10
2023-02-12T05:08:24.795Z,86.00
2023-02-12T05:09:24.741Z,86.00
2023-02-12T05:10:24.692Z,86.38
2023-02-12T05:11:24.653Z,86.66
2023-02-12T05:12:24.593Z,85.91
2023-02-12T05:13:24.571Z,86.00
2023-02-12T05:14:24.492Z,86.00
2023-02-12T05:15:24.449Z,86.00
2023-02-12T05:16:24.387Z,86.19
2023-02-12T05:17:24.348Z,86.10
2023-02-12T05:18:24.292Z,86.19
2023-02-12T05:19:24.282Z,86.19
2023-02-12T05:20:24.190Z,85.91
2023-02-12T05:21:24.139Z,85.91
2023-02-12T05:22:24.089Z,85.72
2023-02-12T05:23:24.038Z,85.72
2023-02-12T05:24:23.991Z,85.62
2023-02-12T05:25:24.170Z,85.34
2023-02-12T05:26:23.887Z,85.53
2023-02-12T05:27:23.838Z,85.24
2023-02-12T05:28:23.799Z,84.68
2023-02-12T05:29:23.737Z,84.77
2023-02-12T05:30:23.688Z,84.86
2023-02-12T05:31:23.735Z,84.96
2023-02-12T05:32:23.587Z,85.05
2023-02-12T05:33:23.539Z,85.05
2023-02-12T05:34:23.485Z,84.86
2023-02-12T05:35:23.438Z,84.68
2023-02-12T05:36:23.388Z,85.05
2023-02-12T05:37:23.350Z,84.58
2023-02-12T05:38:23.288Z,84.86
2023-02-12T05:39:23.238Z,84.68
2023-02-12T05:40:23.194Z,84.77
2023-02-12T05:41:23.154Z,85.24
2023-02-12T05:42:23.091Z,84.86
2023-02-12T05:43:23.029Z,85.15
2023-02-12T05:44:22.980Z,84.86
2023-02-12T05:45:22.960Z,84.68
2023-02-12T05:46:22.913Z,84.86
2023-02-12T05:47:22.853Z,84.58
2023-02-12T05:48:22.783Z,84.86
2023-02-12T05:49:22.732Z,84.86
2023-02-12T05:50:22.683Z,84.86
2023-02-12T05:51:22.628Z,84.77
2023-02-12T05:52:22.611Z,84.68
2023-02-12T05:53:22.532Z,84.58
2023-02-12T05:54:22.483Z,84.58
2023-02-12T05:55:22.427Z,84.39
2023-02-12T05:56:22.375Z,84.30
2023-02-12T05:57:22.357Z,84.11
2023-02-12T05:58:22.277Z,84.58
2023-02-12T05:59:22.227Z,84.30
2023-02-12T06:03:47.296Z,84.30
2023-02-12T06:04:48.595Z,83.97
2023-02-12T06:05:48.403Z,84.20
2023-02-12T06:06:46.852Z,84.64
2023-02-12T06:07:46.872Z,84.64
2023-02-12T06:08:46.646Z,84.82
2023-02-12T06:09:46.947Z,85.20
2023-02-12T06:10:46.543Z,85.49
2023-02-12T06:11:46.701Z,85.58
2023-02-12T06:12:46.435Z,85.86
2023-02-12T06:13:47.544Z,86.00
2023-02-12T06:14:46.338Z,86.15
2023-02-12T06:15:46.350Z,85.77
2023-02-12T06:16:46.529Z,85.91
2023-02-12T06:17:46.187Z,86.10
2023-02-12T06:18:46.336Z,86.05
2023-02-12T06:19:46.088Z,85.96
2023-02-12T06:20:46.779Z,85.96
2023-02-12T06:21:46.162Z,85.58
2023-02-12T06:22:45.932Z,86.00
2023-02-12T06:23:45.966Z,85.30
2023-02-12T06:24:45.828Z,85.96
2023-02-12T06:25:45.991Z,85.96
2023-02-12T06:26:45.938Z,85.86
2023-02-12T06:27:45.683Z,86.15
2023-02-12T06:28:45.627Z,86.52
2023-02-12T06:29:45.703Z,86.33
2023-02-12T06:30:45.576Z,86.43
2023-02-12T06:31:45.630Z,86.24
2023-02-12T06:32:45.571Z,86.19
2023-02-12T06:33:45.408Z,86.24
2023-02-12T06:34:45.326Z,86.24
2023-02-12T06:35:45.444Z,86.62
2023-02-12T06:36:45.227Z,86.33
2023-02-12T06:37:45.253Z,86.62
2023-02-12T06:38:45.129Z,86.52
2023-02-12T06:39:45.117Z,86.24
2023-02-12T06:40:45.078Z,86.52
2023-02-12T06:41:44.978Z,86.33
2023-02-12T06:42:45.091Z,87.18
2023-02-12T06:43:44.943Z,87.09
2023-02-12T06:44:44.899Z,87.66
2023-02-12T06:45:44.771Z,87.47
2023-02-12T06:46:46.007Z,87.37
2023-02-12T06:47:44.688Z,87.66
2023-02-12T06:48:44.731Z,87.98
2023-02-12T06:49:44.569Z,87.79
2023-02-12T06:50:44.735Z,88.17
2023-02-12T06:51:44.550Z,88.08
2023-02-12T06:52:44.421Z,87.89
2023-02-12T06:53:44.665Z,87.79
2023-02-12T06:54:44.314Z,87.89
2023-02-12T06:55:44.364Z,87.61
2023-02-12T06:56:44.221Z,87.61
2023-02-12T06:57:44.170Z,87.23
2023-02-12T06:58:44.115Z,87.23
2023-02-12T06:59:44.189Z,87.23
2023-02-12T07:00:44.023Z,87.32
2023-02-12T07:01:45.021Z,87.42
2023-02-12T07:02:43.912Z,87.32
2023-02-12T07:03:43.902Z,87.13
2023-02-12T07:04:43.818Z,86.57
2023-02-12T07:05:43.927Z,86.38
2023-02-12T07:06:43.736Z,86.29
2023-02-12T07:07:43.833Z,86.29
2023-02-12T07:08:43.615Z,86.94
2023-02-12T07:09:43.569Z,86.10
2023-02-12T07:10:43.519Z,86.19
2023-02-12T07:11:44.499Z,85.91
2023-02-12T07:12:43.409Z,86.29
2023-02-12T07:13:43.475Z,85.72
2023-02-12T07:14:43.318Z,85.81
2023-02-12T07:15:43.259Z,85.81
2023-02-12T07:16:43.279Z,85.72
2023-02-12T07:17:43.499Z,85.34
2023-02-12T07:18:43.122Z,85.34
2023-02-12T07:19:43.209Z,85.10
2023-02-12T07:20:43.009Z,84.91
2023-02-12T07:21:42.968Z,84.63
2023-02-12T07:22:43.131Z,84.81
2023-02-12T07:23:42.871Z,85.10
2023-02-12T07:24:43.146Z,85.10
2023-02-12T07:25:42.755Z,84.91
2023-02-12T07:26:42.765Z,84.81
2023-02-12T07:27:42.669Z,84.63
2023-02-12T07:28:42.662Z,84.72
2023-02-12T07:29:42.557Z,85.00
2023-02-12T07:30:42.821Z,85.10
2023-02-12T07:31:42.634Z,84.81
2023-02-12T07:32:42.641Z,84.72
2023-02-12T07:33:42.375Z,85.28
2023-02-12T07:34:42.405Z,85.00
2023-02-12T07:35:42.264Z,85.10
2023-02-12T07:36:42.409Z,85.38
2023-02-12T07:37:42.178Z,85.38
2023-02-12T07:38:42.112Z,84.72
2023-02-12T07:39:42.065Z,85.42
2023-02-12T07:40:42.301Z,85.05
2023-02-12T07:41:41.961Z,84.72
2023-02-12T07:42:42.047Z,85.42
2023-02-12T07:43:42.104Z,84.77
2023-02-12T07:44:41.822Z,84.95
2023-02-12T07:45:41.788Z,84.67
2023-02-12T07:46:41.880Z,84.58
2023-02-12T07:47:41.661Z,84.29
2023-02-12T07:48:41.689Z,84.01
2023-02-12T07:49:41.571Z,83.72
2023-02-12T07:50:41.520Z,83.53
2023-02-12T07:51:41.471Z,82.87
2023-02-12T07:52:41.719Z,83.34
2023-02-12T07:53:41.399Z,82.40
2023-02-12T07:54:41.520Z,82.87
2023-02-12T07:55:41.276Z,82.68
2023-02-12T07:56:41.220Z,83.06
2023-02-12T07:57:41.238Z,82.31
2023-02-12T07:58:41.236Z,82.31
2023-02-12T07:59:41.148Z,81.74
2023-02-12T08:00:41.064Z,82.12
2023-02-12T08:01:41.167Z,81.87
2023-02-12T08:02:41.004Z,82.21
2023-02-12T08:03:40.876Z,82.12
2023-02-12T08:04:40.904Z,81.77
2023-02-12T08:05:40.998Z,81.87
2023-02-12T08:06:40.733Z,81.30
2023-02-12T08:07:40.800Z,81.49
2023-02-12T08:08:40.638Z,81.59
2023-02-12T08:09:40.816Z,81.21
2023-02-12T08:10:41.727Z,80.83
2023-02-12T08:11:40.626Z,80.74
2023-02-12T08:12:40.448Z,81.68
2023-02-12T08:13:40.438Z,81.77
2023-02-12T08:14:40.370Z,81.21
2023-02-12T08:15:40.448Z,81.59
2023-02-12T08:16:40.366Z,81.59
2023-02-12T08:17:40.257Z,81.02
2023-02-12T08:18:40.145Z,81.02
2023-02-12T08:19:40.274Z,80.74
2023-02-12T08:20:40.123Z,81.02
2023-02-12T08:21:41.119Z,80.74
2023-02-12T08:22:39.955Z,80.74
2023-02-12T08:23:41.142Z,81.02
2023-02-12T08:24:39.867Z,80.93
2023-02-12T08:25:39.806Z,80.64
2023-02-12T08:26:39.778Z,80.45
2023-02-12T08:27:39.918Z,80.58
2023-02-12T08:28:39.766Z,80.68
2023-02-12T08:29:39.735Z,80.58
2023-02-12T08:30:39.587Z,81.15
2023-02-12T08:31:39.539Z,80.58
2023-02-12T08:32:39.702Z,80.68
2023-02-12T08:33:39.660Z,80.96
2023-02-12T08:34:39.380Z,80.96
2023-02-12T08:35:39.468Z,81.15
2023-02-12T08:36:39.310Z,80.87
2023-02-12T08:37:39.365Z,81.06
2023-02-12T08:38:39.217Z,80.49
2023-02-12T08:39:39.296Z,80.96
2023-02-12T08:40:39.128Z,80.58
2023-02-12T08:41:39.098Z,80.68
2023-02-12T08:42:39.339Z,80.58
2023-02-12T08:43:38.933Z,80.30
2023-02-12T08:44:38.899Z,80.96
2023-02-12T08:45:38.950Z,81.25
2023-02-12T08:46:38.786Z,80.77
2023-02-12T08:47:38.944Z,81.06
2023-02-12T08:48:38.700Z,81.25
2023-02-12T08:49:38.641Z,81.25
2023-02-12T08:50:39.776Z,81.44
2023-02-12T08:51:38.536Z,80.82
2023-02-12T08:52:38.563Z,81.38
2023-02-12T08:53:38.449Z,80.91
2023-02-12T08:54:38.784Z,81.01
2023-02-12T08:55:38.348Z,80.15
2023-02-12T08:56:38.392Z,80.91
2023-02-12T08:57:38.249Z,79.96
2023-02-12T08:58:38.405Z,80.34
2023-02-12T08:59:38.198Z,80.25
2023-02-12T09:00:40.429Z,80.15
2023-02-12T09:01:38.105Z,80.06
2023-02-12T09:02:38.262Z,80.91
2023-02-12T09:03:37.961Z,81.01
2023-02-12T09:04:38.254Z,80.72
2023-02-12T09:05:37.869Z,80.91
2023-02-12T09:06:38.070Z,81.29
2023-02-12T09:07:37.765Z,81.10
2023-02-12T09:08:37.859Z,80.63
2023-02-12T09:09:37.706Z,80.95
2023-02-12T09:10:37.870Z,81.33
2023-02-12T09:11:37.571Z,81.14
2023-02-12T09:12:37.532Z,81.24
2023-02-12T09:13:37.488Z,80.95
2023-02-12T09:14:37.495Z,81.05
2023-02-12T09:15:37.565Z,80.76
2023-02-12T09:16:37.432Z,80.76
2023-02-12T09:17:37.283Z,80.19
2023-02-12T09:18:37.239Z,80.19
2023-02-12T09:19:37.215Z,80.48
2023-02-12T09:20:37.328Z,80.29
2023-02-12T09:21:37.093Z,79.91
2023-02-12T09:22:37.143Z,80.10
2023-02-12T09:23:37.005Z,79.91
2023-02-12T09:24:36.962Z,79.95
2023-02-12T09:25:37.017Z,79.10
2023-02-12T09:26:36.983Z,79.19
2023-02-12T09:27:36.809Z,78.62
2023-02-12T09:28:36.853Z,78.81
2023-02-12T09:29:36.722Z,78.62
2023-02-12T09:30:36.726Z,79.19
2023-02-12T09:31:36.856Z,78.72
2023-02-12T09:32:37.027Z,78.81
2023-02-12T09:33:38.764Z,78.15
2023-02-12T09:34:36.480Z,77.67
2023-02-12T09:35:36.545Z,77.86
2023-02-12T09:36:36.385Z,78.19
2023-02-12T09:37:37.671Z,78.00
2023-02-12T09:38:36.326Z,78.00
2023-02-12T09:39:37.485Z,78.66
2023-02-12T09:40:36.197Z,78.70
2023-02-12T09:41:37.288Z,77.60
2023-02-12T09:42:36.108Z,76.21
2023-02-12T09:43:36.173Z,75.40
2023-02-12T09:44:36.019Z,73.53
2023-02-12T09:45:36.087Z,70.72
2023-02-12T09:46:36.000Z,68.08
2023-02-12T09:47:36.120Z,65.73
2023-02-12T09:48:35.834Z,64.05
2023-02-12T09:49:36.121Z,61.70
2023-02-12T09:50:35.744Z,60.68
2023-02-12T09:51:35.923Z,59.16
2023-02-12T09:52:35.657Z,58.23
2023-02-12T09:53:35.632Z,56.92
2023-02-12T09:54:35.565Z,54.53
2023-02-12T09:55:35.762Z,53.13
2023-02-12T09:56:35.484Z,52.94
2023-02-12T09:57:35.686Z,53.16
2023-02-12T09:58:35.408Z,52.87
2023-02-12T09:59:35.352Z,52.61
2023-02-12T10:00:35.307Z,52.25
2023-02-12T10:01:38.821Z,51.13
2023-02-12T10:02:35.239Z,50.48
2023-02-12T10:03:35.298Z,48.85
2023-02-12T10:04:35.199Z,48.59
2023-02-12T10:05:35.108Z,47.82
2023-02-12T10:06:35.171Z,48.61
2023-02-12T10:07:35.133Z,47.20
2023-02-12T10:08:34.998Z,46.53
2023-02-12T10:09:35.143Z,46.05
2023-02-12T10:10:34.903Z,46.17
2023-02-12T10:11:34.881Z,45.30
2023-02-12T10:12:34.827Z,44.08
2023-02-12T10:13:35.172Z,43.50
2023-02-12T10:14:34.745Z,43.43
2023-02-12T10:15:34.829Z,43.62
2023-02-12T10:16:37.256Z,43.16
2023-02-12T10:17:34.664Z,43.35
2023-02-12T10:18:34.590Z,41.64
2023-02-12T10:19:34.718Z,41.55
2023-02-12T10:20:34.526Z,41.28
2023-02-12T10:21:34.619Z,40.61
2023-02-12T10:22:34.456Z,40.80
2023-02-12T10:23:34.403Z,39.64
2023-02-12T10:24:34.458Z,39.37
2023-02-12T10:25:34.495Z,38.60
2023-02-12T10:26:34.446Z,38.51
2023-02-12T10:27:34.258Z,38.31
2023-02-12T10:28:34.504Z,38.14
2023-02-12T10:29:34.174Z,37.93
2023-02-12T10:30:34.272Z,37.85
2023-02-12T10:31:34.219Z,37.27
2023-02-12T10:32:34.100Z,37.19
2023-02-12T10:33:35.534Z,37.01
2023-02-12T10:34:34.100Z,35.73
2023-02-12T10:35:33.940Z,35.93
2023-02-12T10:36:34.106Z,36.31
2023-02-12T10:37:33.876Z,36.31
2023-02-12T10:38:34.018Z,36.43
2023-02-12T10:39:33.837Z,36.61
2023-02-12T10:40:34.064Z,35.73
2023-02-12T10:41:33.718Z,35.44
2023-02-12T10:42:33.843Z,35.33
2023-02-12T10:43:33.651Z,35.44
2023-02-12T10:44:33.868Z,35.35
2023-02-12T10:45:37.192Z,35.46
2023-02-12T10:46:34.715Z,36.04
2023-02-12T10:47:33.503Z,36.04
2023-02-12T10:48:35.737Z,34.88
2023-02-12T10:49:33.443Z,35.10
2023-02-12T10:50:34.513Z,34.80
2023-02-12T10:51:33.376Z,34.03
2023-02-12T10:52:33.317Z,33.57
2023-02-12T10:53:33.281Z,33.76
2023-02-12T10:54:33.315Z,33.37
2023-02-12T10:55:33.209Z,33.18
2023-02-12T10:56:33.327Z,33.47
2023-02-12T10:57:33.307Z,33.47
2023-02-12T10:58:33.092Z,33.95
2023-02-12T10:59:34.928Z,33.47
2023-02-12T11:00:34.283Z,33.57
2023-02-12T11:01:33.046Z,32.60
2023-02-12T11:02:33.268Z,31.73
2023-02-12T11:03:32.921Z,32.60
2023-02-12T11:04:32.909Z,33.47
2023-02-12T11:05:34.244Z,33.26
2023-02-12T11:06:32.808Z,32.78
2023-02-12T11:07:32.896Z,33.36
2023-02-12T11:08:32.783Z,33.74
2023-02-12T11:09:32.808Z,34.05
2023-02-12T11:10:32.666Z,32.79
2023-02-12T11:11:32.630Z,32.23
2023-02-12T11:12:32.758Z,31.94
2023-02-12T11:13:32.553Z,31.63
2023-02-12T11:14:33.975Z,31.75
2023-02-12T11:15:32.487Z,32.03
2023-02-12T11:16:32.496Z,32.31
2023-02-12T11:17:32.559Z,32.21
2023-02-12T11:18:32.375Z,31.83
2023-02-12T11:19:53.465Z,31.80
2023-02-12T11:20:32.308Z,32.94
2023-02-12T11:21:32.397Z,33.31
2023-02-12T11:22:32.249Z,33.69
2023-02-12T11:23:32.429Z,34.17
2023-02-12T11:24:32.164Z,34.56
2023-02-12T11:25:32.418Z,34.46
2023-02-12T11:26:32.106Z,34.38
2023-02-12T11:27:32.229Z,34.00
2023-02-12T11:28:32.135Z,33.23
2023-02-12T11:29:32.239Z,33.13
2023-02-12T11:30:31.956Z,33.51
2023-02-12T11:31:32.146Z,33.23
2023-02-12T11:32:31.877Z,33.44
2023-02-12T11:33:31.848Z,33.15
2023-02-12T11:34:31.818Z,32.57
2023-02-12T11:35:31.978Z,32.59
2023-02-12T11:36:31.738Z,32.10
2023-02-12T11:37:31.756Z,32.39
2023-02-12T11:38:31.813Z,32.12
2023-02-12T11:39:31.808Z,32.03
2023-02-12T11:40:31.595Z,31.15
2023-02-12T11:41:31.816Z,31.27
2023-02-12T11:42:31.526Z,31.06
2023-02-12T11:43:31.830Z,31.15
2023-02-12T11:44:31.454Z,31.85
2023-02-12T11:45:31.424Z,31.46
2023-02-12T11:46:31.420Z,30.88
2023-02-12T11:47:31.463Z,30.49
2023-02-12T11:48:31.315Z,30.21
2023-02-12T11:49:31.459Z,30.29
2023-02-12T11:50:32.302Z,30.77
2023-02-12T11:51:31.485Z,30.96
2023-02-12T11:52:31.177Z,30.96
2023-02-12T11:53:31.292Z,31.27
2023-02-12T11:54:31.547Z,30.98
2023-02-12T11:55:33.500Z,30.99
2023-02-12T11:56:31.038Z,30.22
2023-02-12T11:57:30.996Z,29.72
2023-02-12T11:58:31.138Z,29.72
2023-02-12T11:59:30.928Z,30.21
2023-02-12T12:00:31.146Z,30.01
2023-02-12T12:01:30.869Z,30.59
2023-02-12T12:02:31.054Z,30.03
2023-02-12T12:03:30.793Z,29.55
2023-02-12T12:04:31.897Z,29.74
2023-02-12T12:05:30.711Z,29.06
2023-02-12T12:06:30.882Z,29.45
2023-02-12T12:07:30.925Z,29.35
2023-02-12T12:08:31.711Z,29.83
2023-02-12T12:09:30.593Z,29.36
2023-02-12T12:10:30.697Z,29.27
2023-02-12T12:11:30.505Z,28.80
2023-02-12T12:12:30.713Z,28.51
2023-02-12T12:13:30.433Z,28.51
2023-02-12T12:14:30.399Z,28.43
2023-02-12T12:15:30.370Z,28.14
2023-02-12T12:16:30.681Z,28.03
2023-02-12T12:17:30.301Z,28.13
2023-02-12T12:18:30.454Z,27.93
2023-02-12T12:19:30.224Z,28.03
2023-02-12T12:20:30.190Z,28.13
2023-02-12T12:21:30.175Z,28.03
2023-02-12T12:22:30.278Z,28.04
2023-02-12T12:23:30.227Z,28.04
2023-02-12T12:24:30.290Z,27.85
2023-02-12T12:25:30.017Z,28.22
2023-02-12T12:26:29.987Z,27.82
2023-02-12T12:27:30.208Z,28.59
2023-02-12T12:28:29.996Z,28.88
2023-02-12T12:29:30.124Z,28.41
2023-02-12T12:30:29.856Z,28.23
2023-02-12T12:31:29.973Z,28.15
2023-02-12T12:32:29.780Z,27.17
2023-02-12T12:33:29.961Z,26.99
2023-02-12T12:34:29.710Z,27.57
2023-02-12T12:35:29.866Z,26.14
2023-02-12T12:36:29.648Z,26.53
2023-02-12T12:37:29.667Z,26.15
2023-02-12T12:38:29.586Z,26.25
2023-02-12T12:39:29.913Z,26.34
2023-02-12T12:40:29.500Z,25.96
2023-02-12T12:41:29.702Z,25.67
2023-02-12T12:42:29.439Z,25.38
2023-02-12T12:43:29.716Z,25.77
2023-02-12T12:44:29.369Z,24.71
2023-02-12T12:45:29.538Z,24.80
2023-02-12T12:46:29.297Z,25.29
2023-02-12T12:47:29.537Z,24.90
2023-02-12T12:48:29.239Z,25.67
2023-02-12T12:49:30.630Z,25.67
2023-02-12T12:50:29.164Z,25.59
2023-02-12T12:51:29.260Z,24.82
2023-02-12T12:52:29.094Z,24.72
2023-02-12T12:53:29.272Z,24.91
2023-02-12T12:54:29.024Z,24.82
2023-02-12T12:55:30.110Z,24.61